Flight Track Log - Related Links

Times and Time Zones

All times are in EDT time to prevent confusion due to time zone crossing. See the SWA1046 flight status page for this flight to view local times or setup timezone preferences in your user account.

Time Position Orientation Groundspeed Altitude Reporting Facility
EDT Latitude Longitude Course Direction KTS MPH feet Rate Location/Type
Fri 07:52:49 AM 42.7483 -73.8228 288° West 152 175 1,600  Level Boston Center
Fri 07:53:56 AM 42.7661 -73.8967 288° West 210 242 4,600 2,927 Climbing Boston Center
Fri 07:54:52 AM 42.8008 -73.9569 308° West 231 266 7,600 3,103 Climbing Boston Center
Fri 07:55:52 AM 42.7936 -74.0386 263° West 217 250 10,600 3,150 Climbing Boston Center
Fri 07:56:52 AM 42.7261 -74.0906 209° Southwest 198 228 13,900 3,200 Climbing Boston Center
Fri 07:57:52 AM 42.6492 -74.0689 168° South 262 302 17,000 2,700 Climbing Boston Center
Fri 07:58:52 AM 42.5644 -74.0131 154° Southeast 290 334 19,300 1,850 Climbing Boston Center
Fri 07:59:52 AM 42.4675 -73.9514 155° Southeast 329 379 20,700 1,950 Climbing Boston Center
Fri 08:00:52 AM 42.3642 -73.8872 155° Southeast 380 437 23,200 2,200 Climbing Boston Center
Fri 08:01:52 AM 42.2600 -73.8764 176° South 416 479 25,100 1,900 Climbing Boston Center
Fri 08:02:52 AM 42.1364 -73.9294 198° South 418 481 27,000 1,650 Climbing Boston Center
Fri 08:03:52 AM 42.0336 -73.9747 198° South 434 499 28,400 1,765 Climbing Boston Center
Fri 08:06:16 AM 41.7289 -74.1064 198° South 470 541 33,000 1,862 Climbing New York Center
Fri 08:07:15 AM 41.6067 -74.1558 197° South 464 534 34,700 1,636 Climbing New York Center
Fri 08:08:17 AM 41.4928 -74.2081 199° South 452 520 36,300 1,317 Climbing New York Center
Fri 08:09:18 AM 41.3872 -74.2525 198° South 446 513 37,400 850 Climbing New York Center
Fri 08:10:17 AM 41.2692 -74.2989 196° South 454 522 38,000 308 Climbing New York Center
Fri 08:11:15 AM 41.1533 -74.3478 198° South 454 522 38,000  Level New York Center
Fri 08:12:16 AM 41.0392 -74.3994 199° South 442 509 38,000  Level New York Center
Fri 08:13:17 AM 40.9231 -74.4456 197° South 442 509 38,000  Level New York Center
Fri 08:14:16 AM 40.8072 -74.4942 198° South 442 509 38,000  Level New York Center
Fri 08:15:17 AM 40.6931 -74.5425 198° South 442 509 38,000  Level New York Center
Fri 08:16:16 AM 40.5792 -74.5883 197° South 442 509 38,000  Level New York Center
Fri 08:17:17 AM 40.4669 -74.6367 198° South 436 502 38,000  Level New York Center
Fri 08:19:43 AM 40.1981 -74.7469 197° South 426 490 38,000  Level Washington Center
Fri 08:20:43 AM 40.0858 -74.7969 199° South 421 484 38,000  Level Washington Center
Fri 08:21:41 AM 39.9633 -74.8469 197° South 421 484 38,000  Level Washington Center
Fri 08:22:42 AM 39.8511 -74.8914 197° South 421 484 38,000  Level Washington Center
Fri 08:23:43 AM 39.7389 -74.9386 198° South 421 484 38,000  Level Washington Center
Fri 08:24:41 AM 39.6225 -74.9828 196° South 426 490 38,000  Level Washington Center
Fri 08:25:42 AM 39.5122 -75.0294 198° South 426 490 38,000  Level Washington Center
Fri 08:26:43 AM 39.3978 -75.0733 197° South 426 490 38,000  Level Washington Center
Fri 08:27:43 AM 39.2856 -75.1222 199° South 426 490 38,000  Level Washington Center
Fri 08:28:41 AM 39.1731 -75.1686 198° South 420 483 38,000  Level Washington Center
Fri 08:29:42 AM 39.0628 -75.2147 198° South 425 489 38,000  Level Washington Center
Fri 08:30:43 AM 38.9483 -75.2633 198° South 425 489 38,000  Level Washington Center
Fri 08:31:41 AM 38.8317 -75.3092 197° South 431 496 38,000  Level Washington Center
Fri 08:32:42 AM 38.7192 -75.3628 200° South 431 496 38,000  Level Washington Center
Fri 08:33:43 AM 38.6025 -75.4083 197° South 431 496 38,000  Level Washington Center
Fri 08:34:43 AM 38.4900 -75.4564 198° South 431 496 38,000  Level Washington Center
Fri 08:35:41 AM 38.3753 -75.5017 197° South 431 496 38,000  Level Washington Center
Fri 08:36:42 AM 38.2608 -75.5467 197° South 431 496 38,000  Level Washington Center
Fri 08:37:43 AM 38.1461 -75.5969 199° South 436 502 38,000  Level Washington Center
Fri 08:38:41 AM 38.0333 -75.6525 201° Southwest 444 511 38,000  Level Washington Center
Fri 08:39:42 AM 37.9144 -75.6997 197° South 444 511 38,000  Level Washington Center
Fri 08:40:43 AM 37.7997 -75.7494 199° South 444 511 38,000  Level Washington Center
Fri 08:41:41 AM 37.6828 -75.7992 199° South 444 511 38,000  Level Washington Center
Fri 08:42:41 AM 37.5661 -75.8461 198° South 444 511 38,000  Level Washington Center
Fri 08:43:41 AM 37.4553 -75.9058 203° Southwest 444 511 38,000  Level Washington Center
Fri 08:44:42 AM 37.3425 -75.9656 203° Southwest 444 511 38,000  Level Washington Center
Fri 08:45:42 AM 37.2317 -76.0250 203° Southwest 439 505 38,000  Level Washington Center
Fri 08:46:43 AM 37.1189 -76.0842 203° Southwest 439 505 38,000  Level Washington Center
Fri 08:47:43 AM 37.0081 -76.1458 204° Southwest 439 505 38,000  Level Washington Center
Fri 08:48:41 AM 36.9036 -76.1944 200° South 439 505 38,000  Level Washington Center
Fri 08:49:42 AM 36.7989 -76.2636 208° Southwest 434 499 38,000  Level Washington Center
Fri 08:50:43 AM 36.6961 -76.3381 210° Southwest 434 499 38,000  Level Washington Center
Fri 08:51:43 AM 36.5936 -76.4069 208° Southwest 428 493 38,000  Level Washington Center
Fri 08:52:41 AM 36.4928 -76.4731 208° Southwest 423 487 38,000  Level Washington Center
Fri 08:53:41 AM 36.3858 -76.5439 208° Southwest 423 487 38,000  Level Washington Center
Fri 08:54:41 AM 36.2853 -76.6097 208° Southwest 423 487 38,000  Level Washington Center
Fri 08:55:42 AM 36.1825 -76.6806 209° Southwest 423 487 38,000  Level Washington Center
Fri 08:56:43 AM 36.0794 -76.7486 208° Southwest 423 487 38,000  Level Washington Center
Fri 08:57:41 AM 35.9744 -76.8189 208° Southwest 423 487 38,000  Level Washington Center
Fri 08:58:42 AM 35.8672 -76.8917 209° Southwest 428 493 38,000  Level Washington Center
Fri 08:59:42 AM 35.7622 -76.9589 207° Southwest 428 493 38,000  Level Washington Center
Fri 09:00:43 AM 35.6572 -77.0261 207° Southwest 433 498 38,000  Level Washington Center
Fri 09:01:41 AM 35.5561 -77.0958 209° Southwest 433 498 38,000  Level Washington Center
Fri 09:02:41 AM 35.4428 -77.1497 201° Southwest 433 498 38,000  Level Washington Center
Fri 09:03:42 AM 35.3275 -77.1908 196° South 433 498 38,000  Level Washington Center
Fri 09:04:43 AM 35.2100 -77.2369 198° South 438 504 38,000  Level Washington Center
Fri 09:05:43 AM 35.0925 -77.2828 198° South 438 504 38,000  Level Washington Center
Fri 09:06:41 AM 34.9772 -77.3283 198° South 444 511 38,000  Level Washington Center
Fri 09:07:41 AM 34.8617 -77.3714 197° South 444 511 38,000  Level Washington Center
Fri 09:08:42 AM 34.7336 -77.4242 199° South 444 511 38,000  Level Washington Center
Fri 09:09:42 AM 34.6181 -77.4722 199° South 444 511 38,000  Level Washington Center
Fri 09:10:43 AM 34.5006 -77.5147 197° South 444 511 38,000  Level Washington Center
Fri 09:11:43 AM 34.3872 -77.5575 197° South 439 505 38,000  Level Washington Center
Fri 09:12:43 AM 34.2719 -77.6000 197° South 439 505 38,000  Level Washington Center
Fri 09:14:27 AM 34.0747 -77.6731 197° South 433 498 38,000  Level Jacksonville Center
Fri 09:15:28 AM 33.9597 -77.7150 197° South 433 498 38,000  Level Jacksonville Center
Fri 09:16:28 AM 33.8467 -77.7567 197° South 433 498 38,000  Level Jacksonville Center
Fri 09:17:28 AM 33.7294 -77.8011 198° South 433 498 38,000  Level Jacksonville Center
Fri 09:18:28 AM 33.6144 -77.8450 198° South 433 498 38,000  Level Jacksonville Center
Fri 09:19:28 AM 33.4972 -77.8892 197° South 433 498 38,000  Level Jacksonville Center
Fri 09:20:27 AM 33.3778 -77.9306 196° South 433 498 38,000  Level Jacksonville Center
Fri 09:21:28 AM 33.2628 -77.9767 199° South 433 498 38,000  Level Jacksonville Center
Fri 09:22:28 AM 33.1433 -78.0181 196° South 433 498 38,000  Level Jacksonville Center
Fri 09:23:27 AM 33.0281 -78.0614 197° South 433 498 38,000  Level Jacksonville Center
Fri 09:24:28 AM 32.9150 -78.1022 197° South 433 498 38,000  Level Jacksonville Center
Fri 09:25:28 AM 32.7978 -78.1481 198° South 433 498 38,000  Level Jacksonville Center
Fri 09:26:28 AM 32.6825 -78.1886 196° South 433 498 38,000  Level Jacksonville Center
Fri 09:27:28 AM 32.5650 -78.2292 196° South 438 504 38,000  Level Jacksonville Center
Fri 09:28:28 AM 32.4494 -78.2694 196° South 438 504 38,000  Level Jacksonville Center
Fri 09:29:27 AM 32.3219 -78.3203 199° South 444 511 38,000  Level Jacksonville Center
Fri 09:30:28 AM 32.2047 -78.3653 198° South 439 505 38,000  Level Jacksonville Center
Fri 09:31:28 AM 32.0892 -78.4078 197° South 439 505 38,000  Level Jacksonville Center
Fri 09:32:27 AM 31.9717 -78.4503 197° South 439 505 38,000  Level Jacksonville Center
Fri 09:33:28 AM 31.8561 -78.4900 196° South 433 498 38,000  Level Jacksonville Center
Fri 09:34:27 AM 31.7386 -78.5325 197° South 438 504 38,000  Level Jacksonville Center
Fri 09:35:28 AM 31.6214 -78.5769 198° South 437 503 38,000  Level Jacksonville Center
Fri 09:36:28 AM 31.5036 -78.6164 196° South 431 496 38,000  Level Jacksonville Center
Fri 09:37:27 AM 31.3881 -78.6558 196° South 444 511 38,000  Level Jacksonville Center
Fri 09:38:27 AM 31.2725 -78.7000 198° South 433 498 38,000  Level Jacksonville Center
Fri 09:39:28 AM 31.1550 -78.7417 197° South 433 498 38,000  Level Jacksonville Center
Fri 09:40:28 AM 31.0372 -78.7831 197° South 433 498 38,000  Level Jacksonville Center
Fri 09:41:28 AM 30.9278 -78.8194 196° South 443 510 38,000  Level Jacksonville Center
Fri 09:42:28 AM 30.8164 -78.8606 198° South 443 510 38,000  Level Jacksonville Center
Fri 09:43:28 AM 30.6925 -78.9019 196° South 438 504 38,000  Level Jacksonville Center
Fri 09:45:03 AM 30.5128 -78.9667 197° South 430 495 38,000  Level Miami Center
Fri 09:46:03 AM 30.3892 -79.0100 197° South 437 503 38,000  Level Miami Center
Fri 09:47:03 AM 30.2800 -79.0581 201° Southwest 442 509 38,000  Level Miami Center
Fri 09:48:03 AM 30.1625 -79.1061 199° South 447 514 38,000  Level Miami Center
Fri 09:49:03 AM 30.0469 -79.1589 202° Southwest 447 514 38,000  Level Miami Center
Fri 09:50:03 AM 29.9231 -79.2136 201° Southwest 447 514 38,000  Level Miami Center
Fri 09:51:03 AM 29.8097 -79.2661 202° Southwest 447 514 38,000  Level Miami Center
Fri 09:52:03 AM 29.6942 -79.3136 200° South 447 514 38,000  Level Miami Center
Fri 09:53:03 AM 29.5767 -79.3611 199° South 447 514 38,000 -1,100 Level Miami Center
Fri 09:54:03 AM 29.4650 -79.4181 204° Southwest 447 514 35,800 -2,250 Descending Miami Center
Fri 09:55:03 AM 29.3517 -79.4656 200° South 447 514 33,500 -2,200 Descending Miami Center
Fri 09:56:03 AM 29.2444 -79.5106 200° South 431 496 31,400 -2,050 Descending Miami Center
Fri 09:57:03 AM 29.1411 -79.5581 202° Southwest 426 490 29,400 -1,950 Descending Miami Center
Fri 09:58:03 AM 29.0669 -79.6322 221° Southwest 390 449 27,500 -1,800 Descending Miami Center
Fri 09:59:03 AM 29.0375 -79.7431 253° West 353 406 25,800 -1,800 Descending Miami Center
Fri 10:00:03 AM 29.0058 -79.8561 252° West 359 413 23,900 -1,800 Descending Miami Center
Fri 10:01:03 AM 28.9767 -79.9597 252° West 359 413 22,200 -1,750 Descending Miami Center
Fri 10:02:03 AM 28.9431 -80.0631 250° West 359 413 20,400 -1,750 Descending Miami Center
Fri 10:03:03 AM 28.9117 -80.1617 250° West 349 402 18,700 -1,753 Descending Miami Center
Fri 10:04:37 AM 28.8667 -80.3167 252° West 323 372 15,900 -1,987 Descending Orlando TRACON
Fri 10:05:37 AM 28.8333 -80.4167 249° West 333 383 13,600 -1,983 Descending Orlando TRACON
Fri 10:06:32 AM 28.8167 -80.5000 257° West 319 367 12,100 -1,537 Descending Orlando TRACON
Fri 10:07:38 AM 28.8000 -80.6167 261° West 308 354 10,500 -1,000 Descending Orlando TRACON
Fri 10:08:38 AM 28.7833 -80.7000 257° West 297 342 10,000 -248 Descending Orlando TRACON
Fri 10:09:39 AM 28.7833 -80.8000 270° West 287 330 10,000  Level Orlando TRACON
Fri 10:10:39 AM 28.7667 -80.8833 257° West 291 335 10,000 -750 Level Orlando TRACON
Fri 10:11:39 AM 28.7500 -80.9833 259° West 291 335 8,500 -1,476 Descending Orlando TRACON
Fri 10:12:45 AM 28.7333 -81.0833 259° West 287 330 6,900 -1,240 Descending Orlando TRACON
Fri 10:13:40 AM 28.7000 -81.1333 233° Southwest 279 321 6,000 -893 Descending Orlando TRACON
Fri 10:14:46 AM 28.6500 -81.2000 229° Southwest 240 276 5,100 -1,158 Descending Orlando TRACON
Fri 10:15:34 AM 28.6167 -81.2500 233° Southwest 229 264 3,800 -1,263 Descending Orlando TRACON
Fri 10:16:40 AM 28.5667 -81.2833 210° Southwest 203 234 2,700 -1,150 Descending Orlando TRACON
Fri 10:17:34 AM 28.5167 -81.2833 180° South 153 176 1,500 -1,043 Descending Orlando TRACON
Fri 10:18:35 AM 28.4833 -81.2833 180° South 146 168 700 -787 Descending Orlando TRACON

Login

Don't have an account? Register now (free) for customized features, flight alerts, and more!